Airport View

Enter AWOS ICAO identifier for current METAR.

ex. KFNL

KAFK 120615Z AUTO 17014KT 10SM CLR 03/M03 A3007 RMK AO2 T00261028

12 Dec 2019 06:32

Frequency: 128.325

Phone: 402-873-7375

Other Area AWOS: KPMV - KSDA - KOFF - KFNB

TAF COR KOFF 120450Z 1202/1308 13009KT 9999 BKN220 WS010/15035KT QNH3015INS BECMG 1205/1206 17009KT 9999 BKN050 BKN220 WS010/20035KT 620502 QNH3005INS BECMG 1209/1210 17009KT 9999 OVC020 WS010/20035KT 620201 QNH3002INS BECMG 1211/1212 23009KT 9999 OVC020 620201 QNH2998INS BECMG 1215/1216 31009KT 9999 SCT020 BKN200 QNH3000INS WND VRB06KT AFT 1300 TX06/1220Z TNM02/1204Z